createdAt,value
2023-05-25T00:00:20.663Z,4.82
2023-05-25T00:02:48.047Z,5.68
2023-05-25T00:05:15.493Z,5.00
2023-05-25T00:07:42.919Z,4.28
2023-05-25T00:10:10.173Z,4.57
2023-05-25T00:12:37.739Z,5.05
2023-05-25T00:15:07.125Z,4.05
2023-05-25T00:17:37.031Z,5.03
2023-05-25T00:20:09.325Z,5.35
2023-05-25T00:22:36.594Z,6.95
2023-05-25T00:25:03.881Z,3.47
2023-05-25T00:27:31.184Z,4.97
2023-05-25T00:29:58.413Z,5.32
2023-05-25T00:32:27.048Z,4.32
2023-05-25T00:34:54.629Z,4.90
2023-05-25T00:37:21.881Z,5.30
2023-05-25T00:39:49.128Z,4.65
2023-05-25T00:42:16.532Z,5.65
2023-05-25T00:44:43.789Z,4.13
2023-05-25T00:47:11.616Z,5.03
2023-05-25T00:49:41.228Z,6.20
2023-05-25T00:52:08.520Z,3.72
2023-05-25T00:54:37.549Z,4.95
2023-05-25T00:57:05.200Z,4.57
2023-05-25T00:59:35.659Z,4.85
2023-05-25T01:02:04.554Z,5.07
2023-05-25T01:04:32.198Z,3.75
2023-05-25T01:07:01.107Z,4.40
2023-05-25T01:09:28.394Z,4.00
2023-05-25T01:11:55.694Z,4.55
2023-05-25T01:14:24.823Z,5.65
2023-05-25T01:16:52.484Z,5.55
2023-05-25T01:19:19.805Z,3.78
2023-05-25T01:21:49.920Z,5.43
2023-05-25T01:26:50.326Z,5.82
2023-05-25T01:29:17.579Z,4.32
2023-05-25T01:31:44.836Z,5.20
2023-05-25T01:34:12.209Z,4.72
2023-05-25T01:36:40.202Z,4.15
2023-05-25T01:39:10.925Z,5.57
2023-05-25T01:41:38.179Z,2.90
2023-05-25T01:44:07.408Z,4.82
2023-05-25T01:46:36.791Z,4.93
2023-05-25T01:49:08.550Z,5.78
2023-05-25T01:51:37.545Z,5.53
2023-05-25T01:54:06.731Z,5.80
2023-05-25T01:56:35.382Z,5.33
2023-05-25T01:59:02.856Z,5.03
2023-05-25T02:01:30.172Z,5.40
2023-05-25T02:03:57.468Z,4.32
2023-05-25T02:06:24.718Z,4.20
2023-05-25T02:08:51.932Z,4.40
2023-05-25T02:11:19.557Z,4.10
2023-05-25T02:13:48.107Z,4.10
2023-05-25T02:16:15.444Z,4.22
2023-05-25T02:18:44.501Z,4.97
2023-05-25T02:21:11.782Z,3.30
2023-05-25T02:23:38.997Z,4.57
2023-05-25T02:26:06.352Z,5.45
2023-05-25T02:28:33.609Z,3.78
2023-05-25T02:31:02.399Z,4.85
2023-05-25T02:33:29.685Z,4.00
2023-05-25T02:35:56.935Z,3.90
2023-05-25T02:38:24.210Z,4.13
2023-05-25T02:40:51.458Z,6.38
2023-05-25T02:43:18.698Z,3.55
2023-05-25T02:45:46.058Z,5.57
2023-05-25T02:48:14.692Z,3.40
2023-05-25T02:50:41.972Z,2.63
2023-05-25T02:53:09.226Z,3.20
2023-05-25T02:55:37.935Z,4.38
2023-05-25T02:58:05.187Z,4.45
2023-05-25T03:00:32.571Z,4.15
2023-05-25T03:02:59.875Z,4.88
2023-05-25T03:05:28.743Z,4.55
2023-05-25T03:07:56.300Z,5.30
2023-05-25T03:10:23.547Z,6.00
2023-05-25T03:12:50.813Z,4.72
2023-05-25T03:15:18.070Z,4.20
2023-05-25T03:17:45.365Z,5.05
2023-05-25T03:20:15.425Z,6.47
2023-05-25T03:22:44.057Z,6.07
2023-05-25T03:25:13.016Z,5.03
2023-05-25T03:27:40.484Z,4.13
2023-05-25T03:30:09.013Z,4.20
2023-05-25T03:32:36.329Z,4.88
2023-05-25T03:35:04.123Z,4.43
2023-05-25T03:37:31.953Z,6.75
2023-05-25T03:40:00.556Z,4.32
2023-05-25T03:42:27.801Z,3.90
2023-05-25T03:44:55.087Z,3.95
2023-05-25T03:47:22.396Z,4.47
2023-05-25T03:49:49.690Z,5.80
2023-05-25T03:52:16.984Z,4.20
2023-05-25T03:54:44.245Z,5.03
2023-05-25T03:57:12.814Z,4.90
2023-05-25T03:59:40.111Z,4.55
2023-05-25T04:02:07.443Z,4.22
2023-05-25T04:04:35.023Z,4.20
2023-05-25T04:07:02.554Z,4.20
2023-05-25T04:09:29.832Z,4.55
2023-05-25T04:11:57.145Z,4.78
2023-05-25T04:14:25.781Z,3.92
2023-05-25T04:16:53.287Z,4.03
2023-05-25T04:19:20.541Z,3.58
2023-05-25T04:21:47.808Z,5.05
2023-05-25T04:24:15.090Z,4.10
2023-05-25T04:26:42.401Z,5.88
2023-05-25T04:29:10.111Z,3.92
2023-05-25T04:31:39.108Z,3.97
2023-05-25T04:34:06.475Z,4.82
2023-05-25T04:36:34.110Z,3.58
2023-05-25T04:39:03.922Z,4.20
2023-05-25T04:41:31.225Z,4.60
2023-05-25T04:44:09.129Z,4.75
2023-05-25T04:46:39.067Z,4.10
2023-05-25T04:49:08.325Z,4.10
2023-05-25T04:51:36.026Z,4.57
2023-05-25T04:54:03.373Z,5.15
2023-05-25T04:56:31.078Z,4.28
2023-05-25T04:58:58.363Z,4.65
2023-05-25T05:01:26.287Z,4.63
2023-05-25T05:03:55.007Z,6.80
2023-05-25T05:06:22.593Z,3.80
2023-05-25T05:08:49.894Z,4.68
2023-05-25T05:11:17.152Z,3.75
2023-05-25T05:13:44.501Z,4.75
2023-05-25T05:16:11.761Z,4.22
2023-05-25T05:18:39.064Z,3.92
2023-05-25T05:21:07.650Z,5.85
2023-05-25T05:23:34.902Z,4.80
2023-05-25T05:26:04.796Z,5.25
2023-05-25T05:28:32.101Z,3.60
2023-05-25T05:30:59.443Z,3.65
2023-05-25T05:33:26.814Z,4.03
2023-05-25T05:35:54.609Z,5.18
2023-05-25T05:38:23.153Z,7.95
2023-05-25T05:40:50.396Z,5.18
2023-05-25T05:43:17.755Z,5.97
2023-05-25T05:45:45.295Z,6.90
2023-05-25T05:48:12.799Z,4.53
2023-05-25T05:50:41.987Z,4.13
2023-05-25T05:53:10.978Z,5.78
2023-05-25T05:55:39.543Z,4.45
2023-05-25T05:58:06.771Z,4.63
2023-05-25T06:00:34.006Z,4.45
2023-05-25T06:03:01.372Z,4.25
2023-05-25T06:05:28.723Z,3.95
2023-05-25T06:07:56.090Z,5.47
2023-05-25T06:10:23.363Z,6.22
2023-05-25T06:12:51.904Z,4.40
2023-05-25T06:15:19.148Z,5.53
2023-05-25T06:17:46.433Z,4.63
2023-05-25T06:20:14.928Z,5.95
2023-05-25T06:22:42.380Z,6.45
2023-05-25T06:25:10.906Z,5.75
2023-05-25T06:27:38.146Z,4.93
2023-05-25T06:30:07.431Z,6.82
2023-05-25T06:32:34.902Z,8.57
2023-05-25T06:35:02.167Z,5.40
2023-05-25T06:37:35.004Z,6.10
2023-05-25T06:40:02.745Z,4.53
2023-05-25T06:42:30.004Z,4.50
2023-05-25T06:44:57.232Z,6.60
2023-05-25T06:47:25.818Z,6.38
2023-05-25T06:49:53.088Z,5.65
2023-05-25T06:52:20.336Z,7.57
2023-05-25T06:54:47.555Z,5.97
2023-05-25T06:57:14.778Z,7.55
2023-05-25T06:59:41.985Z,9.07
2023-05-25T07:02:09.239Z,4.82
2023-05-25T07:04:37.901Z,10.77
2023-05-25T07:07:06.175Z,8.77
2023-05-25T07:09:33.401Z,6.47
2023-05-25T07:12:01.098Z,5.50
2023-05-25T07:14:28.343Z,9.65
2023-05-25T07:16:55.578Z,12.13
2023-05-25T07:19:22.848Z,12.40
2023-05-25T07:21:51.387Z,6.63
2023-05-25T07:24:19.097Z,5.72
2023-05-25T07:26:46.370Z,9.65
2023-05-25T07:29:14.181Z,12.90
2023-05-25T07:31:41.466Z,10.25
2023-05-25T07:34:08.810Z,11.57
2023-05-25T07:36:36.017Z,8.43
2023-05-25T07:39:04.683Z,6.88
2023-05-25T07:41:32.201Z,7.82
2023-05-25T07:43:59.420Z,10.68
2023-05-25T07:46:26.685Z,6.18
2023-05-25T07:48:54.626Z,7.65
2023-05-25T07:51:23.258Z,12.23
2023-05-25T07:53:52.257Z,8.45
2023-05-25T07:56:20.837Z,11.27
2023-05-25T07:58:48.129Z,6.53
2023-05-25T08:01:16.103Z,6.38
2023-05-25T08:03:49.822Z,8.25
2023-05-25T08:06:17.763Z,4.88
2023-05-25T08:08:45.552Z,7.47
2023-05-25T08:11:12.777Z,11.27
2023-05-25T08:13:41.336Z,15.25
2023-05-25T08:16:09.092Z,14.70
2023-05-25T08:18:36.394Z,16.05
2023-05-25T08:21:03.751Z,16.20
2023-05-25T08:23:31.048Z,19.92
2023-05-25T08:25:58.316Z,14.73
2023-05-25T08:28:25.859Z,14.27
2023-05-25T08:30:55.036Z,21.17
2023-05-25T08:33:23.923Z,15.00
2023-05-25T08:38:24.945Z,14.52
2023-05-25T08:40:52.859Z,13.60
2023-05-25T08:43:20.190Z,12.73
2023-05-25T08:45:47.636Z,15.65
2023-05-25T08:48:26.922Z,14.43
2023-05-25T08:50:59.461Z,15.18
2023-05-25T08:53:26.692Z,13.52
2023-05-25T08:55:53.977Z,12.40
2023-05-25T08:58:21.763Z,13.05
2023-05-25T09:00:49.714Z,14.15
2023-05-25T09:03:18.813Z,11.40
2023-05-25T09:05:46.596Z,14.27
2023-05-25T09:08:14.207Z,12.93
2023-05-25T09:10:41.525Z,11.38
2023-05-25T09:13:21.474Z,13.68
2023-05-25T09:15:50.097Z,17.15
2023-05-25T09:18:18.732Z,14.68
2023-05-25T09:20:47.240Z,12.20
2023-05-25T09:23:15.457Z,13.55
2023-05-25T09:25:42.741Z,13.00
2023-05-25T09:28:25.335Z,12.43
2023-05-25T09:30:53.920Z,11.35
2023-05-25T09:33:22.499Z,23.90
2023-05-25T09:35:49.782Z,14.80
2023-05-25T09:38:17.378Z,15.80
2023-05-25T09:40:45.158Z,13.80
2023-05-25T09:43:13.371Z,14.05
2023-05-25T09:45:44.785Z,12.43
2023-05-25T09:48:12.070Z,13.30
2023-05-25T09:50:40.803Z,11.98
2023-05-25T09:53:08.049Z,12.73
2023-05-25T09:55:51.612Z,15.10
2023-05-25T09:58:20.804Z,15.35
2023-05-25T10:00:48.192Z,13.00
2023-05-25T10:03:16.136Z,12.25
2023-05-25T10:05:44.741Z,9.65
2023-05-25T10:08:12.043Z,11.48
2023-05-25T10:10:39.523Z,12.23
2023-05-25T10:13:06.750Z,9.40
2023-05-25T10:15:34.050Z,11.68
2023-05-25T10:18:01.344Z,8.40
2023-05-25T10:20:56.524Z,10.00
2023-05-25T10:23:17.636Z,7.80
2023-05-25T10:25:45.074Z,10.43
2023-05-25T10:28:14.156Z,10.25
2023-05-25T10:30:41.642Z,9.30
2023-05-25T10:33:08.946Z,8.75
2023-05-25T10:35:46.800Z,8.77
2023-05-25T10:38:24.781Z,11.10
2023-05-25T10:40:52.193Z,8.18
2023-05-25T10:43:19.527Z,8.50
2023-05-25T10:45:47.050Z,7.45
2023-05-25T10:48:14.799Z,9.13
2023-05-25T10:50:42.092Z,7.78
2023-05-25T10:53:09.617Z,10.23
2023-05-25T10:58:09.820Z,9.98
2023-05-25T11:00:37.167Z,9.18
2023-05-25T11:03:04.579Z,9.23
2023-05-25T11:05:32.512Z,11.23
2023-05-25T11:08:00.064Z,7.35
2023-05-25T11:10:42.792Z,8.85
2023-05-25T11:13:27.822Z,9.38
2023-05-25T11:16:15.453Z,8.15
2023-05-25T11:18:43.456Z,6.78
2023-05-25T11:21:18.586Z,8.85
2023-05-25T11:23:55.630Z,6.65
2023-05-25T11:26:23.422Z,6.85
2023-05-25T11:28:51.550Z,8.75
2023-05-25T11:31:23.377Z,7.45
2023-05-25T11:33:51.728Z,10.43
2023-05-25T11:36:20.449Z,9.02
2023-05-25T11:38:56.518Z,8.88
2023-05-25T11:41:29.928Z,6.90
2023-05-25T11:43:57.287Z,7.20
2023-05-25T11:46:26.200Z,7.75
2023-05-25T11:48:53.630Z,8.45
2023-05-25T11:51:21.290Z,7.97
2023-05-25T11:53:48.634Z,6.53
2023-05-25T11:56:30.630Z,7.35
2023-05-25T11:59:01.343Z,7.20
2023-05-25T12:01:31.750Z,9.77
2023-05-25T12:03:59.285Z,8.98
2023-05-25T12:06:27.322Z,10.18
2023-05-25T12:08:54.612Z,6.43
2023-05-25T12:11:27.918Z,8.10
2023-05-25T12:13:55.206Z,6.70
2023-05-25T12:16:22.527Z,8.20
2023-05-25T12:18:51.134Z,7.10
2023-05-25T12:21:18.360Z,7.00
2023-05-25T12:23:45.589Z,6.25
2023-05-25T12:26:13.377Z,8.38
2023-05-25T12:28:40.779Z,9.32
2023-05-25T12:31:23.397Z,8.15
2023-05-25T12:34:04.535Z,9.15
2023-05-25T12:36:41.599Z,9.30
2023-05-25T12:39:09.202Z,8.38
2023-05-25T12:41:57.394Z,8.05
2023-05-25T12:44:25.122Z,8.98
2023-05-25T12:46:52.805Z,12.88
2023-05-25T12:49:28.074Z,6.47
2023-05-25T12:51:55.525Z,7.93
2023-05-25T12:54:34.015Z,6.45
2023-05-25T12:57:02.289Z,7.13
2023-05-25T12:59:30.110Z,6.80
2023-05-25T13:01:57.539Z,8.07
2023-05-25T13:04:24.841Z,7.60
2023-05-25T13:06:54.012Z,8.77
2023-05-25T13:09:21.713Z,6.37
2023-05-25T13:11:48.968Z,7.60
2023-05-25T13:14:16.346Z,9.25
2023-05-25T13:16:43.772Z,7.40
2023-05-25T13:19:11.055Z,8.70
2023-05-25T13:21:38.299Z,6.00
2023-05-25T13:24:07.151Z,8.52
2023-05-25T13:26:34.770Z,7.45
2023-05-25T13:29:02.025Z,9.73
2023-05-25T13:31:29.310Z,7.22
2023-05-25T13:33:57.884Z,5.75
2023-05-25T13:36:25.120Z,7.53
2023-05-25T13:38:52.386Z,8.68
2023-05-25T13:41:21.063Z,6.82
2023-05-25T13:43:48.365Z,7.35
2023-05-25T13:46:32.777Z,5.95
2023-05-25T13:49:01.786Z,7.10
2023-05-25T13:51:29.120Z,7.40
2023-05-25T13:53:56.433Z,5.57
2023-05-25T13:56:25.350Z,7.75
2023-05-25T13:58:53.853Z,6.80
2023-05-25T14:01:21.109Z,6.75
2023-05-25T14:03:48.429Z,6.13
2023-05-25T14:06:15.758Z,6.82
2023-05-25T14:08:42.994Z,6.65
2023-05-25T14:11:10.293Z,6.13
2023-05-25T14:13:38.992Z,8.55
2023-05-25T14:16:06.937Z,5.38
2023-05-25T14:18:34.240Z,8.75
2023-05-25T14:21:01.496Z,5.70
2023-05-25T14:23:28.755Z,7.07
2023-05-25T14:25:55.998Z,6.07
2023-05-25T14:28:23.237Z,6.13
2023-05-25T14:30:53.168Z,5.63
2023-05-25T14:33:20.426Z,6.68
2023-05-25T14:35:47.994Z,6.88
2023-05-25T14:38:15.270Z,6.60
2023-05-25T14:40:42.523Z,6.82
2023-05-25T14:43:09.783Z,6.47
2023-05-25T14:45:37.018Z,6.15
2023-05-25T14:48:16.078Z,6.18
2023-05-25T14:50:44.578Z,6.88
2023-05-25T14:53:12.194Z,7.13
2023-05-25T14:55:40.784Z,6.93
2023-05-25T14:58:08.073Z,6.78
2023-05-25T15:00:35.478Z,6.70
2023-05-25T15:03:02.791Z,7.68
2023-05-25T15:05:31.585Z,7.97
2023-05-25T15:07:59.098Z,6.63
2023-05-25T15:10:26.372Z,6.05
2023-05-25T15:12:53.673Z,5.68
2023-05-25T15:15:20.970Z,5.32
2023-05-25T15:17:48.260Z,5.72
2023-05-25T15:20:15.822Z,6.57
2023-05-25T15:22:44.510Z,7.38
2023-05-25T15:25:13.605Z,5.40
2023-05-25T15:27:42.297Z,5.47
2023-05-25T15:30:09.863Z,5.20
2023-05-25T15:32:37.125Z,5.05
2023-05-25T15:35:04.559Z,6.65
2023-05-25T15:37:31.790Z,6.55
2023-05-25T15:40:00.392Z,4.72
2023-05-25T15:42:27.676Z,4.88
2023-05-25T15:44:55.029Z,5.80
2023-05-25T15:47:22.308Z,5.38
2023-05-25T15:49:49.744Z,5.38
2023-05-25T15:52:17.011Z,8.45
2023-05-25T15:54:44.243Z,5.40
2023-05-25T15:57:12.808Z,5.13
2023-05-25T15:59:40.058Z,5.68
2023-05-25T16:02:07.521Z,5.65
2023-05-25T16:04:34.961Z,6.68
2023-05-25T16:07:02.199Z,7.68
2023-05-25T16:09:29.886Z,4.65
2023-05-25T16:11:57.196Z,6.20
2023-05-25T16:14:25.809Z,6.60
2023-05-25T16:16:53.128Z,4.90
2023-05-25T16:19:20.530Z,5.28
2023-05-25T16:21:47.843Z,5.10
2023-05-25T16:24:15.164Z,5.57
2023-05-25T16:26:42.433Z,7.03
2023-05-25T16:29:09.729Z,4.80
2023-05-25T16:31:38.353Z,5.03
2023-05-25T16:34:05.821Z,5.80
2023-05-25T16:36:33.092Z,6.80
2023-05-25T16:39:00.354Z,5.65
2023-05-25T16:41:27.776Z,6.15
2023-05-25T16:43:55.052Z,7.45
2023-05-25T16:46:22.347Z,6.32
2023-05-25T16:48:50.962Z,5.45
2023-05-25T16:51:18.216Z,6.22
2023-05-25T16:53:45.667Z,5.10
2023-05-25T16:56:12.975Z,6.53
2023-05-25T16:58:40.282Z,4.32
2023-05-25T17:01:07.657Z,7.18
2023-05-25T17:03:35.172Z,6.50
2023-05-25T17:06:03.834Z,5.97
2023-05-25T17:08:31.098Z,5.22
2023-05-25T17:10:58.333Z,6.75
2023-05-25T17:13:26.002Z,5.88
2023-05-25T17:15:53.295Z,5.72
2023-05-25T17:18:21.620Z,6.70
2023-05-25T17:20:48.946Z,5.55
2023-05-25T17:23:17.553Z,6.28
2023-05-25T17:25:45.215Z,6.13
2023-05-25T17:28:12.629Z,7.13
2023-05-25T17:30:39.891Z,5.03
2023-05-25T17:33:07.200Z,5.43
2023-05-25T17:35:34.538Z,6.40
2023-05-25T17:38:01.791Z,5.50
2023-05-25T17:40:30.718Z,6.10
2023-05-25T17:42:57.959Z,6.18
2023-05-25T17:45:25.429Z,7.05
2023-05-25T17:47:52.737Z,5.43
2023-05-25T17:50:20.014Z,8.32
2023-05-25T17:52:47.568Z,5.70
2023-05-25T17:55:14.814Z,5.68
2023-05-25T17:57:43.396Z,6.15
2023-05-25T18:00:11.141Z,7.63
2023-05-25T18:02:38.490Z,8.00
2023-05-25T18:05:06.111Z,6.10
2023-05-25T18:07:33.353Z,5.97
2023-05-25T18:10:00.741Z,5.63
2023-05-25T18:12:28.243Z,8.65
2023-05-25T18:14:56.800Z,5.65
2023-05-25T18:17:24.076Z,5.82
2023-05-25T18:19:51.367Z,5.85
2023-05-25T18:22:18.643Z,6.07
2023-05-25T18:24:45.888Z,5.35
2023-05-25T18:27:13.153Z,7.60
2023-05-25T18:29:40.419Z,6.60
2023-05-25T18:32:09.116Z,7.50
2023-05-25T18:34:36.364Z,5.97
2023-05-25T18:37:03.611Z,6.53
2023-05-25T18:39:31.219Z,5.70
2023-05-25T18:41:58.501Z,6.55
2023-05-25T18:44:26.751Z,5.30
2023-05-25T18:46:56.101Z,5.55
2023-05-25T18:49:24.838Z,7.95
2023-05-25T18:51:52.113Z,6.68
2023-05-25T18:54:19.357Z,6.40
2023-05-25T18:56:46.664Z,6.43
2023-05-25T18:59:13.898Z,7.18
2023-05-25T19:01:41.165Z,6.50
2023-05-25T19:04:08.553Z,7.38
2023-05-25T19:06:37.795Z,6.28
2023-05-25T19:09:05.092Z,7.27
2023-05-25T19:11:32.462Z,6.57
2023-05-25T19:13:59.725Z,5.82
2023-05-25T19:16:26.956Z,4.72
2023-05-25T19:18:54.246Z,6.07
2023-05-25T19:21:21.475Z,8.07
2023-05-25T19:23:50.086Z,6.93
2023-05-25T19:26:17.328Z,7.82
2023-05-25T19:28:44.583Z,6.88
2023-05-25T19:31:11.856Z,6.90
2023-05-25T19:33:39.118Z,8.60
2023-05-25T19:36:06.397Z,7.22
2023-05-25T19:38:41.346Z,7.35
2023-05-25T19:41:10.693Z,8.70
2023-05-25T19:43:38.114Z,8.25
2023-05-25T19:46:05.534Z,7.45
2023-05-25T19:48:33.024Z,8.43
2023-05-25T19:51:00.912Z,9.25
2023-05-25T19:53:28.691Z,7.32
2023-05-25T19:55:55.949Z,9.13
2023-05-25T19:58:24.501Z,6.05
2023-05-25T20:00:52.006Z,8.98
2023-05-25T20:03:20.841Z,9.05
2023-05-25T20:05:48.278Z,8.73
2023-05-25T20:08:15.575Z,7.75
2023-05-25T20:10:44.623Z,8.05
2023-05-25T20:13:12.490Z,8.65
2023-05-25T20:15:41.190Z,9.23
2023-05-25T20:18:08.538Z,9.50
2023-05-25T20:20:35.854Z,7.72
2023-05-25T20:23:03.166Z,8.25
2023-05-25T20:25:30.591Z,7.03
2023-05-25T20:27:57.858Z,9.35
2023-05-25T20:30:25.098Z,9.27
2023-05-25T20:32:53.719Z,7.18
2023-05-25T20:35:20.979Z,10.15
2023-05-25T20:37:48.224Z,9.68
2023-05-25T20:40:15.508Z,9.32
2023-05-25T20:42:42.814Z,11.18
2023-05-25T20:45:10.188Z,9.88
2023-05-25T20:47:39.254Z,9.10
2023-05-25T20:50:08.363Z,7.00
2023-05-25T20:52:35.661Z,9.70
2023-05-25T20:55:02.908Z,12.32
2023-05-25T20:57:30.190Z,6.95
2023-05-25T20:59:59.632Z,10.88
2023-05-25T21:02:27.112Z,10.32
2023-05-25T21:04:54.421Z,10.88
2023-05-25T21:07:22.970Z,8.25
2023-05-25T21:09:50.245Z,8.60
2023-05-25T21:12:17.476Z,8.80
2023-05-25T21:14:44.711Z,10.60
2023-05-25T21:17:12.049Z,10.10
2023-05-25T21:19:39.333Z,9.27
2023-05-25T21:22:06.560Z,8.10
2023-05-25T21:24:35.100Z,7.32
2023-05-25T21:27:02.348Z,9.10
2023-05-25T21:29:29.578Z,9.98
2023-05-25T21:31:56.913Z,9.90
2023-05-25T21:34:24.192Z,13.38
2023-05-25T21:36:51.528Z,12.27
2023-05-25T21:39:18.818Z,12.82
2023-05-25T21:41:47.368Z,8.98
2023-05-25T21:44:14.613Z,9.18
2023-05-25T21:46:41.885Z,11.75
2023-05-25T21:49:09.172Z,9.35
2023-05-25T21:51:36.418Z,8.40
2023-05-25T21:54:03.900Z,9.77
2023-05-25T21:56:31.151Z,12.18
2023-05-25T21:58:59.670Z,12.25
2023-05-25T22:01:26.956Z,11.35
2023-05-25T22:03:54.198Z,9.43
2023-05-25T22:06:21.456Z,9.60
2023-05-25T22:08:48.702Z,9.48
2023-05-25T22:11:15.978Z,9.77
2023-05-25T22:13:43.327Z,10.90
2023-05-25T22:16:11.973Z,9.45
2023-05-25T22:18:39.212Z,8.70
2023-05-25T22:21:06.488Z,10.40
2023-05-25T22:23:33.726Z,10.70
2023-05-25T22:26:00.963Z,12.18
2023-05-25T22:28:28.187Z,9.25
2023-05-25T22:30:55.486Z,10.15
2023-05-25T22:33:24.104Z,9.52
2023-05-25T22:35:51.685Z,12.02
2023-05-25T22:38:18.926Z,10.52
2023-05-25T22:40:47.515Z,12.77
2023-05-25T22:43:14.918Z,11.48
2023-05-25T22:45:42.175Z,9.95
2023-05-25T22:48:09.578Z,9.85
2023-05-25T22:50:38.213Z,10.80
2023-05-25T22:53:05.542Z,10.38
2023-05-25T22:55:32.802Z,10.50
2023-05-25T22:58:00.074Z,12.25
2023-05-25T23:00:27.350Z,7.97
2023-05-25T23:02:54.730Z,11.32
2023-05-25T23:05:22.084Z,15.00
2023-05-25T23:07:50.626Z,9.13
2023-05-25T23:10:18.694Z,10.77
2023-05-25T23:12:46.517Z,10.63
2023-05-25T23:15:13.783Z,14.13
2023-05-25T23:17:41.149Z,12.85
2023-05-25T23:20:10.632Z,9.02
2023-05-25T23:22:38.017Z,10.27
2023-05-25T23:25:07.169Z,9.40
2023-05-25T23:27:34.405Z,9.93
2023-05-25T23:30:02.844Z,10.13
2023-05-25T23:32:30.287Z,12.98
2023-05-25T23:34:57.667Z,11.65
2023-05-25T23:37:28.266Z,8.95
2023-05-25T23:39:55.554Z,12.07
2023-05-25T23:42:24.121Z,10.55
2023-05-25T23:44:51.370Z,11.43
2023-05-25T23:47:18.593Z,12.95
2023-05-25T23:49:45.858Z,12.13
2023-05-25T23:52:13.098Z,12.52
2023-05-25T23:54:40.321Z,9.15
2023-05-25T23:57:07.560Z,10.30
2023-05-25T23:59:36.131Z,12.63
